createdAt,value
2019-04-06T00:00:42.933Z,998.70
2019-04-06T00:01:42.924Z,998.67
2019-04-06T00:02:42.936Z,998.64
2019-04-06T00:03:42.908Z,998.64
2019-04-06T00:04:42.907Z,998.68
2019-04-06T00:05:42.883Z,998.65
2019-04-06T00:06:42.871Z,998.63
2019-04-06T00:07:42.877Z,998.65
2019-04-06T00:08:42.843Z,998.66
2019-04-06T00:09:42.836Z,998.59
2019-04-06T00:10:42.822Z,998.63
2019-04-06T00:11:42.810Z,998.62
2019-04-06T00:12:42.866Z,998.62
2019-04-06T00:13:42.793Z,998.60
2019-04-06T00:14:42.774Z,998.58
2019-04-06T00:15:42.761Z,998.60
2019-04-06T00:16:42.757Z,998.63
2019-04-06T00:17:42.764Z,998.67
2019-04-06T00:18:42.730Z,998.64
2019-04-06T00:19:42.741Z,998.61
2019-04-06T00:20:42.711Z,998.60
2019-04-06T00:21:42.695Z,998.57
2019-04-06T00:22:42.739Z,998.52
2019-04-06T00:23:42.672Z,998.54
2019-04-06T00:24:42.675Z,998.56
2019-04-06T00:25:44.524Z,998.52
2019-04-06T00:26:42.641Z,998.53
2019-04-06T00:27:42.662Z,998.54
2019-04-06T00:28:42.642Z,998.52
2019-04-06T00:29:42.615Z,998.52
2019-04-06T00:30:42.592Z,998.48
2019-04-06T00:31:42.582Z,998.52
2019-04-06T00:32:42.575Z,998.50
2019-04-06T00:33:42.615Z,998.49
2019-04-06T00:34:42.551Z,998.48
2019-04-06T00:35:42.537Z,998.53
2019-04-06T00:36:42.531Z,998.47
2019-04-06T00:37:42.516Z,998.45
2019-04-06T00:38:42.527Z,998.49
2019-04-06T00:39:42.510Z,998.42
2019-04-06T00:40:42.486Z,998.43
2019-04-06T00:41:42.470Z,998.41
2019-04-06T00:42:42.462Z,998.38
2019-04-06T00:43:42.470Z,998.38
2019-04-06T00:44:42.434Z,998.39
2019-04-06T00:45:42.449Z,998.40
2019-04-06T00:46:42.411Z,998.39
2019-04-06T00:47:42.413Z,998.41
2019-04-06T00:48:42.416Z,998.41
2019-04-06T00:49:42.377Z,998.46
2019-04-06T00:50:42.369Z,998.45
2019-04-06T00:51:42.419Z,998.42
2019-04-06T00:52:42.348Z,998.41
2019-04-06T00:53:42.357Z,998.45
2019-04-06T00:54:42.322Z,998.48
2019-04-06T00:55:42.314Z,998.44
2019-04-06T00:56:42.300Z,998.44
2019-04-06T00:57:42.291Z,998.45
2019-04-06T00:58:42.319Z,998.44
2019-04-06T00:59:42.268Z,998.45
2019-04-06T01:00:42.255Z,998.45
2019-04-06T01:01:42.258Z,998.43
2019-04-06T01:02:42.234Z,998.39
2019-04-06T01:03:42.246Z,998.41
2019-04-06T01:04:42.210Z,998.40
2019-04-06T01:05:42.206Z,998.39
2019-04-06T01:06:42.216Z,998.38
2019-04-06T01:07:42.178Z,998.32
2019-04-06T01:08:42.193Z,998.36
2019-04-06T01:09:42.158Z,998.34
2019-04-06T01:10:42.146Z,998.34
2019-04-06T01:11:42.129Z,998.35
2019-04-06T01:12:42.185Z,998.38
2019-04-06T01:13:42.133Z,998.30
2019-04-06T01:14:42.096Z,998.36
2019-04-06T01:15:42.126Z,998.32
2019-04-06T01:16:42.076Z,998.36
2019-04-06T01:17:42.065Z,998.37
2019-04-06T01:18:42.107Z,998.37
2019-04-06T01:19:42.040Z,998.36
2019-04-06T01:20:42.029Z,998.35
2019-04-06T01:21:42.017Z,998.33
2019-04-06T01:22:42.007Z,998.36
2019-04-06T01:23:41.998Z,998.30
2019-04-06T01:24:42.040Z,998.35
2019-04-06T01:25:41.973Z,998.35
2019-04-06T01:26:41.962Z,998.41
2019-04-06T01:27:41.950Z,998.37
2019-04-06T01:28:41.938Z,998.34
2019-04-06T01:29:42.043Z,998.33
2019-04-06T01:30:41.919Z,998.30
2019-04-06T01:31:41.903Z,998.29
2019-04-06T01:32:41.914Z,998.28
2019-04-06T01:33:41.883Z,998.24
2019-04-06T01:34:41.898Z,998.27
2019-04-06T01:35:41.858Z,998.29
2019-04-06T01:36:41.846Z,998.24
2019-04-06T01:37:41.935Z,998.24
2019-04-06T01:38:41.824Z,998.26
2019-04-06T01:39:41.870Z,998.21
2019-04-06T01:40:41.803Z,998.22
2019-04-06T01:41:41.803Z,998.20
2019-04-06T01:42:41.779Z,998.24
2019-04-06T01:43:41.766Z,998.21
2019-04-06T01:44:41.783Z,998.20
2019-04-06T01:45:41.758Z,998.17
2019-04-06T01:46:41.758Z,998.20
2019-04-06T01:47:41.723Z,998.22
2019-04-06T01:48:42.283Z,998.18
2019-04-06T01:49:41.724Z,998.19
2019-04-06T01:50:41.740Z,998.25
2019-04-06T01:51:41.676Z,998.21
2019-04-06T01:52:41.665Z,998.20
2019-04-06T01:53:41.676Z,998.17
2019-04-06T01:54:41.677Z,998.20
2019-04-06T01:55:41.634Z,998.20
2019-04-06T01:56:41.620Z,998.16
2019-04-06T01:57:41.610Z,998.18
2019-04-06T01:58:41.598Z,998.21
2019-04-06T01:59:41.611Z,998.16
2019-04-06T02:00:41.702Z,998.15
2019-04-06T02:01:41.564Z,998.12
2019-04-06T02:02:41.554Z,998.13
2019-04-06T02:03:41.540Z,998.10
2019-04-06T02:04:41.554Z,998.11
2019-04-06T02:05:41.525Z,998.07
2019-04-06T02:06:41.535Z,998.04
2019-04-06T02:07:41.516Z,998.08
2019-04-06T02:08:41.489Z,998.09
2019-04-06T02:09:41.498Z,998.08
2019-04-06T02:10:41.465Z,998.06
2019-04-06T02:11:41.455Z,998.05
2019-04-06T02:12:41.470Z,998.08
2019-04-06T02:13:41.429Z,998.07
2019-04-06T02:14:41.463Z,998.06
2019-04-06T02:15:41.408Z,998.09
2019-04-06T02:16:41.395Z,998.10
2019-04-06T02:17:41.404Z,998.10
2019-04-06T02:18:41.371Z,998.10
2019-04-06T02:19:41.364Z,998.09
2019-04-06T02:20:41.375Z,998.07
2019-04-06T02:21:41.341Z,998.10
2019-04-06T02:22:41.352Z,998.09
2019-04-06T02:23:41.317Z,998.07
2019-04-06T02:24:41.310Z,998.08
2019-04-06T02:25:41.320Z,998.07
2019-04-06T02:26:41.284Z,998.06
2019-04-06T02:27:41.275Z,998.10
2019-04-06T02:28:41.264Z,998.12
2019-04-06T02:29:41.260Z,998.10
2019-04-06T02:30:41.261Z,998.11
2019-04-06T02:31:41.228Z,998.17
2019-04-06T02:32:41.301Z,998.15
2019-04-06T02:33:41.209Z,998.18
2019-04-06T02:34:41.190Z,998.17
2019-04-06T02:35:41.229Z,998.16
2019-04-06T02:36:41.184Z,998.17
2019-04-06T02:37:41.188Z,998.18
2019-04-06T02:38:41.146Z,998.12
2019-04-06T02:39:41.142Z,998.13
2019-04-06T02:40:41.206Z,998.11
2019-04-06T02:41:41.114Z,998.12
2019-04-06T02:42:41.104Z,998.21
2019-04-06T02:43:41.094Z,998.14
2019-04-06T02:44:41.102Z,998.18
2019-04-06T02:45:41.092Z,998.17
2019-04-06T02:46:41.055Z,998.18
2019-04-06T02:47:41.055Z,998.14
2019-04-06T02:48:41.036Z,998.14
2019-04-06T02:49:41.030Z,998.13
2019-04-06T02:50:41.134Z,998.16
2019-04-06T02:51:41.013Z,998.13
2019-04-06T02:52:40.989Z,998.11
2019-04-06T02:53:40.989Z,998.10
2019-04-06T02:54:40.968Z,998.14
2019-04-06T02:55:40.979Z,998.12
2019-04-06T02:56:46.746Z,998.17
2019-04-06T02:57:41.972Z,998.14
2019-04-06T02:58:40.923Z,998.17
2019-04-06T02:59:40.910Z,998.16
2019-04-06T03:00:40.928Z,998.24
2019-04-06T03:01:40.885Z,998.17
2019-04-06T03:02:40.880Z,998.20
2019-04-06T03:03:40.907Z,998.27
2019-04-06T03:04:40.992Z,998.24
2019-04-06T03:05:40.888Z,998.30
2019-04-06T03:06:40.836Z,998.26
2019-04-06T03:07:40.886Z,998.26
2019-04-06T03:08:40.810Z,998.24
2019-04-06T03:09:40.862Z,998.25
2019-04-06T03:10:40.814Z,998.24
2019-04-06T03:11:40.852Z,998.24
2019-04-06T03:12:40.778Z,998.23
2019-04-06T03:13:40.757Z,998.21
2019-04-06T03:14:44.006Z,998.24
2019-04-06T03:15:40.906Z,998.20
2019-04-06T03:16:40.749Z,998.25
2019-04-06T03:17:40.710Z,998.23
2019-04-06T03:18:40.724Z,998.27
2019-04-06T03:19:40.685Z,998.22
2019-04-06T03:20:40.872Z,998.24
2019-04-06T03:21:40.689Z,998.25
2019-04-06T03:22:40.690Z,998.24
2019-04-06T03:23:50.583Z,998.21
2019-04-06T03:24:41.630Z,998.21
2019-04-06T03:25:40.617Z,998.21
2019-04-06T03:26:40.632Z,998.24
2019-04-06T03:27:40.728Z,998.19
2019-04-06T03:28:40.602Z,998.21
2019-04-06T03:29:40.573Z,998.24
2019-04-06T03:30:40.561Z,998.18
2019-04-06T03:31:40.694Z,998.16
2019-04-06T03:32:40.576Z,998.16
2019-04-06T03:33:40.531Z,998.15
2019-04-06T03:34:40.564Z,998.18
2019-04-06T03:35:46.886Z,998.21
2019-04-06T03:36:41.514Z,998.21
2019-04-06T03:37:40.494Z,998.23
2019-04-06T03:38:40.469Z,998.21
2019-04-06T03:39:40.457Z,998.21
2019-04-06T03:40:40.456Z,998.24
2019-04-06T03:41:40.460Z,998.24
2019-04-06T03:42:40.423Z,998.26
2019-04-06T03:43:40.412Z,998.23
2019-04-06T03:44:40.401Z,998.22
2019-04-06T03:45:40.390Z,998.23
2019-04-06T03:46:40.435Z,998.22
2019-04-06T03:47:40.562Z,998.24
2019-04-06T03:48:40.369Z,998.23
2019-04-06T03:49:40.540Z,998.21
2019-04-06T03:50:40.334Z,998.22
2019-04-06T03:51:40.348Z,998.25
2019-04-06T03:52:40.446Z,998.27
2019-04-06T03:53:40.321Z,998.22
2019-04-06T03:54:40.290Z,998.21
2019-04-06T03:55:40.279Z,998.18
2019-04-06T03:56:40.289Z,998.21
2019-04-06T03:57:40.259Z,998.24
2019-04-06T03:58:40.257Z,998.20
2019-04-06T03:59:40.249Z,998.20
2019-04-06T04:00:40.286Z,998.24
2019-04-06T04:01:40.236Z,998.24
2019-04-06T04:02:40.197Z,998.26
2019-04-06T04:03:40.414Z,998.28
2019-04-06T04:04:40.177Z,998.22
2019-04-06T04:05:40.179Z,998.21
2019-04-06T04:06:40.363Z,998.24
2019-04-06T04:07:40.232Z,998.25
2019-04-06T04:08:40.139Z,998.23
2019-04-06T04:09:40.125Z,998.24
2019-04-06T04:10:40.109Z,998.25
2019-04-06T04:11:40.117Z,998.24
2019-04-06T04:12:40.353Z,998.24
2019-04-06T04:13:40.075Z,998.28
2019-04-06T04:14:40.064Z,998.25
2019-04-06T04:15:40.057Z,998.24
2019-04-06T04:16:40.048Z,998.21
2019-04-06T04:17:40.064Z,998.28
2019-04-06T04:18:40.204Z,998.24
2019-04-06T04:19:40.005Z,998.24
2019-04-06T04:20:40.011Z,998.25
2019-04-06T04:21:39.989Z,998.27
2019-04-06T04:22:39.997Z,998.24
2019-04-06T04:23:39.970Z,998.22
2019-04-06T04:24:39.956Z,998.26
2019-04-06T04:25:40.255Z,998.27
2019-04-06T04:26:39.936Z,998.32
2019-04-06T04:27:39.944Z,998.31
2019-04-06T04:28:39.912Z,998.29
2019-04-06T04:29:39.981Z,998.29
2019-04-06T04:30:40.003Z,998.32
2019-04-06T04:31:39.872Z,998.34
2019-04-06T04:32:39.908Z,998.34
2019-04-06T04:33:39.851Z,998.39
2019-04-06T04:34:39.869Z,998.35
2019-04-06T04:35:39.829Z,998.37
2019-04-06T04:36:39.999Z,998.35
2019-04-06T04:37:39.841Z,998.32
2019-04-06T04:38:39.801Z,998.34
2019-04-06T04:39:39.785Z,998.34
2019-04-06T04:40:40.030Z,998.37
2019-04-06T04:41:40.419Z,998.37
2019-04-06T04:42:39.781Z,998.41
2019-04-06T04:43:40.030Z,998.36
2019-04-06T04:44:39.739Z,998.39
2019-04-06T04:45:39.970Z,998.40
2019-04-06T04:46:39.703Z,998.37
2019-04-06T04:47:39.718Z,998.42
2019-04-06T04:48:39.765Z,998.41
2019-04-06T04:49:39.717Z,998.40
2019-04-06T04:50:39.660Z,998.45
2019-04-06T04:51:39.651Z,998.44
2019-04-06T04:52:39.661Z,998.47
2019-04-06T04:53:39.627Z,998.42
2019-04-06T04:54:39.615Z,998.48
2019-04-06T04:55:39.621Z,998.46
2019-04-06T04:56:39.594Z,998.44
2019-04-06T04:57:41.424Z,998.50
2019-04-06T04:58:39.569Z,998.48
2019-04-06T04:59:39.748Z,998.49
2019-04-06T05:00:39.701Z,998.53
2019-04-06T05:01:39.578Z,998.55
2019-04-06T05:02:39.550Z,998.53
2019-04-06T05:03:39.518Z,998.53
2019-04-06T05:04:39.529Z,998.59
2019-04-06T05:05:39.490Z,998.55
2019-04-06T05:06:39.483Z,998.61
2019-04-06T05:07:39.483Z,998.60
2019-04-06T05:08:39.491Z,998.57
2019-04-06T05:09:39.446Z,998.64
2019-04-06T05:10:39.433Z,998.65
2019-04-06T05:11:39.423Z,998.70
2019-04-06T05:12:39.415Z,998.67
2019-04-06T05:13:39.425Z,998.66
2019-04-06T05:14:39.407Z,998.62
2019-04-06T05:15:39.377Z,998.64
2019-04-06T05:16:39.366Z,998.60
2019-04-06T05:17:39.358Z,998.67
2019-04-06T05:18:39.371Z,998.69
2019-04-06T05:19:39.334Z,998.68
2019-04-06T05:20:39.343Z,998.73
2019-04-06T05:21:39.401Z,998.68
2019-04-06T05:22:39.303Z,998.69
2019-04-06T05:23:39.317Z,998.69
2019-04-06T05:24:39.278Z,998.70
2019-04-06T05:25:39.294Z,998.69
2019-04-06T05:26:39.263Z,998.75
2019-04-06T05:27:50.490Z,998.75
2019-04-06T05:28:40.255Z,998.76
2019-04-06T05:29:39.224Z,998.79
2019-04-06T05:30:39.209Z,998.78
2019-04-06T05:31:39.341Z,998.79
2019-04-06T05:32:39.234Z,998.75
2019-04-06T05:33:39.304Z,998.81
2019-04-06T05:34:39.175Z,998.74
2019-04-06T05:35:39.158Z,998.80
2019-04-06T05:36:39.248Z,998.79
2019-04-06T05:37:39.152Z,998.81
2019-04-06T05:38:39.143Z,998.81
2019-04-06T05:39:39.108Z,998.79
2019-04-06T05:40:39.098Z,998.75
2019-04-06T05:41:39.094Z,998.74
2019-04-06T05:42:39.074Z,998.76
2019-04-06T05:43:39.112Z,998.70
2019-04-06T05:44:39.053Z,998.80
2019-04-06T05:45:39.041Z,998.79
2019-04-06T05:46:39.029Z,998.80
2019-04-06T05:47:39.123Z,998.85
2019-04-06T05:48:39.035Z,998.85
2019-04-06T05:49:39.025Z,998.77
2019-04-06T05:50:38.985Z,998.88
2019-04-06T05:51:38.974Z,998.78
2019-04-06T05:52:39.151Z,998.80
2019-04-06T05:53:38.977Z,998.85
2019-04-06T05:54:38.945Z,998.86
2019-04-06T05:55:39.005Z,998.86
2019-04-06T05:56:38.929Z,998.87
2019-04-06T05:57:38.908Z,998.87
2019-04-06T05:58:40.872Z,998.90
2019-04-06T05:59:40.968Z,998.90
2019-04-06T06:00:40.535Z,998.88
2019-04-06T06:01:40.613Z,998.88
2019-04-06T06:02:41.310Z,998.91
2019-04-06T06:03:41.094Z,998.90
2019-04-06T06:04:41.009Z,998.94
2019-04-06T06:05:41.021Z,998.96
2019-04-06T06:06:38.806Z,998.97
2019-04-06T06:07:38.797Z,998.90
2019-04-06T06:08:38.791Z,998.93
2019-04-06T06:09:38.884Z,998.94
2019-04-06T06:10:38.769Z,998.91
2019-04-06T06:11:38.749Z,998.92
2019-04-06T06:12:38.739Z,998.93
2019-04-06T06:13:39.450Z,998.96
2019-04-06T06:14:38.750Z,998.96
2019-04-06T06:15:38.726Z,999.01
2019-04-06T06:16:38.695Z,999.01
2019-04-06T06:17:38.810Z,998.99
2019-04-06T06:18:38.972Z,998.98
2019-04-06T06:19:38.683Z,998.93
2019-04-06T06:20:38.847Z,998.92
2019-04-06T06:21:38.672Z,998.96
2019-04-06T06:22:38.625Z,998.98
2019-04-06T06:23:38.774Z,998.96
2019-04-06T06:24:38.627Z,998.95
2019-04-06T06:25:38.593Z,998.99
2019-04-06T06:26:38.618Z,998.98
2019-04-06T06:27:38.579Z,998.98
2019-04-06T06:28:38.558Z,999.02
2019-04-06T06:29:38.576Z,998.96
2019-04-06T06:30:38.747Z,998.99
2019-04-06T06:31:38.524Z,999.01
2019-04-06T06:32:38.512Z,999.03
2019-04-06T06:33:38.506Z,999.07
2019-04-06T06:34:38.514Z,999.02
2019-04-06T06:35:38.549Z,999.04
2019-04-06T06:36:38.687Z,999.05
2019-04-06T06:37:38.458Z,999.05
2019-04-06T06:38:39.298Z,999.04
2019-04-06T06:39:38.469Z,998.99
2019-04-06T06:40:38.430Z,999.03
2019-04-06T06:41:38.569Z,999.01
2019-04-06T06:42:38.407Z,999.02
2019-04-06T06:43:38.391Z,999.03
2019-04-06T06:44:38.400Z,998.97
2019-04-06T06:45:38.369Z,999.02
2019-04-06T06:46:38.352Z,999.04
2019-04-06T06:47:38.351Z,998.96
2019-04-06T06:48:38.333Z,999.01
2019-04-06T06:49:38.345Z,999.01
2019-04-06T06:50:38.307Z,998.96
2019-04-06T06:51:38.306Z,998.99
2019-04-06T06:52:38.288Z,998.99
2019-04-06T06:53:38.279Z,998.97
2019-04-06T06:54:38.287Z,998.97
2019-04-06T06:55:38.250Z,998.99
2019-04-06T06:56:38.254Z,998.94
2019-04-06T06:57:38.236Z,999.01
2019-04-06T06:58:38.220Z,998.99
2019-04-06T06:59:38.208Z,998.93
2019-04-06T07:00:38.335Z,998.97
2019-04-06T07:01:38.185Z,998.95
2019-04-06T07:02:38.176Z,998.95
2019-04-06T07:03:38.176Z,998.93
2019-04-06T07:04:38.151Z,998.94
2019-04-06T07:05:38.212Z,998.94
2019-04-06T07:06:38.201Z,998.95
2019-04-06T07:07:38.117Z,998.96
2019-04-06T07:08:39.591Z,999.00
2019-04-06T07:09:38.111Z,998.99
2019-04-06T07:10:38.106Z,998.99
2019-04-06T07:11:38.072Z,999.01
2019-04-06T07:12:38.060Z,998.99
2019-04-06T07:13:38.051Z,999.06
2019-04-06T07:14:38.056Z,999.02
2019-04-06T07:15:38.049Z,999.03
2019-04-06T07:16:38.013Z,999.02
2019-04-06T07:17:38.003Z,999.02
2019-04-06T07:18:37.998Z,999.02
2019-04-06T07:19:37.980Z,999.03
2019-04-06T07:20:38.094Z,999.02
2019-04-06T07:21:37.957Z,999.03
2019-04-06T07:22:37.946Z,999.03
2019-04-06T07:23:37.936Z,999.03
2019-04-06T07:24:37.924Z,999.01
2019-04-06T07:25:37.936Z,999.04
2019-04-06T07:26:40.609Z,999.02
2019-04-06T07:27:38.042Z,998.99
2019-04-06T07:28:39.127Z,998.98
2019-04-06T07:29:37.936Z,998.99
2019-04-06T07:30:37.879Z,999.01
2019-04-06T07:31:37.844Z,998.99
2019-04-06T07:32:37.849Z,999.00
2019-04-06T07:33:37.828Z,999.04
2019-04-06T07:34:37.814Z,999.02
2019-04-06T07:35:37.827Z,999.04
2019-04-06T07:36:37.787Z,999.07
2019-04-06T07:37:37.781Z,999.01
2019-04-06T07:38:38.355Z,999.04
2019-04-06T07:39:37.781Z,999.02
2019-04-06T07:40:37.766Z,999.07
2019-04-06T07:41:37.730Z,999.02
2019-04-06T07:42:37.770Z,999.00
2019-04-06T07:43:37.708Z,998.98
2019-04-06T07:44:37.940Z,998.97
2019-04-06T07:45:37.726Z,998.97
2019-04-06T07:46:37.674Z,998.92
2019-04-06T07:47:37.671Z,998.92
2019-04-06T07:48:37.668Z,998.97
2019-04-06T07:49:37.808Z,998.96
2019-04-06T07:50:37.652Z,998.96
2019-04-06T07:51:37.629Z,998.98
2019-04-06T07:52:37.608Z,999.00
2019-04-06T07:53:37.595Z,999.02
2019-04-06T07:54:37.585Z,999.00
2019-04-06T07:55:37.580Z,998.93
2019-04-06T07:56:37.603Z,998.95
2019-04-06T07:57:37.558Z,998.95
2019-04-06T07:58:48.003Z,998.97
2019-04-06T07:59:38.525Z,998.91
2019-04-06T08:00:37.520Z,998.95
2019-04-06T08:01:37.528Z,998.93
2019-04-06T08:02:37.495Z,998.93
2019-04-06T08:03:37.482Z,998.97
2019-04-06T08:04:37.474Z,998.96
2019-04-06T08:05:37.478Z,998.98
2019-04-06T08:06:37.477Z,998.95
2019-04-06T08:07:37.666Z,998.93
2019-04-06T08:08:37.432Z,998.93
2019-04-06T08:09:37.624Z,998.92
2019-04-06T08:10:37.404Z,998.94
2019-04-06T08:11:37.443Z,998.94
2019-04-06T08:12:37.617Z,998.95
2019-04-06T08:13:37.368Z,998.95
2019-04-06T08:14:37.361Z,998.88
2019-04-06T08:15:37.347Z,998.88
2019-04-06T08:16:37.430Z,998.88
2019-04-06T08:17:37.563Z,998.85
2019-04-06T08:18:37.314Z,998.83
2019-04-06T08:19:37.551Z,998.81
2019-04-06T08:20:37.317Z,998.88
2019-04-06T08:21:37.304Z,998.85
2019-04-06T08:22:37.267Z,998.81
2019-04-06T08:23:37.332Z,998.87
2019-04-06T08:24:37.262Z,998.80
2019-04-06T08:25:37.233Z,998.81
2019-04-06T08:26:37.247Z,998.78
2019-04-06T08:27:37.211Z,998.80
2019-04-06T08:28:37.201Z,998.82
2019-04-06T08:29:37.195Z,998.79
2019-04-06T08:30:45.438Z,998.80
2019-04-06T08:31:38.187Z,998.82
2019-04-06T08:32:37.153Z,998.81
2019-04-06T08:33:37.145Z,998.84
2019-04-06T08:34:37.131Z,998.78
2019-04-06T08:35:37.137Z,998.86
2019-04-06T08:36:37.135Z,998.78
2019-04-06T08:37:37.097Z,998.85
2019-04-06T08:38:37.085Z,998.83
2019-04-06T08:39:37.117Z,998.82
2019-04-06T08:40:37.063Z,998.82
2019-04-06T08:41:37.080Z,998.84
2019-04-06T08:42:37.048Z,998.84
2019-04-06T08:43:37.029Z,998.85
2019-04-06T08:44:37.018Z,998.84
2019-04-06T08:45:37.008Z,998.80
2019-04-06T08:46:37.227Z,998.85
2019-04-06T08:47:37.089Z,998.86
2019-04-06T08:48:37.010Z,998.84
2019-04-06T08:49:37.175Z,998.82
2019-04-06T08:50:36.980Z,998.80
2019-04-06T08:51:36.941Z,998.87
2019-04-06T08:52:36.955Z,998.85
2019-04-06T08:53:36.917Z,998.84
2019-04-06T08:54:36.921Z,998.85
2019-04-06T08:55:36.896Z,998.85
2019-04-06T08:56:36.885Z,998.84
2019-04-06T08:57:36.916Z,998.85
2019-04-06T08:58:36.863Z,998.81
2019-04-06T08:59:36.905Z,998.86
2019-04-06T09:00:36.857Z,998.81
2019-04-06T09:01:36.824Z,998.85
2019-04-06T09:02:36.844Z,998.84
2019-04-06T09:03:36.804Z,998.81
2019-04-06T09:04:36.794Z,998.78
2019-04-06T09:05:36.898Z,998.83
2019-04-06T09:06:36.776Z,998.82
2019-04-06T09:07:36.783Z,998.80
2019-04-06T09:08:36.757Z,998.80
2019-04-06T09:09:36.736Z,998.84
2019-04-06T09:10:36.723Z,998.70
2019-04-06T09:11:36.762Z,998.73
2019-04-06T09:12:37.022Z,998.76
2019-04-06T09:13:36.810Z,998.73
2019-04-06T09:14:36.685Z,998.69
2019-04-06T09:15:36.907Z,998.75
2019-04-06T09:16:36.656Z,998.69
2019-04-06T09:17:36.676Z,998.71
2019-04-06T09:18:36.660Z,998.70
2019-04-06T09:19:36.621Z,998.66
2019-04-06T09:20:36.610Z,998.69
2019-04-06T09:21:36.606Z,998.65
2019-04-06T09:22:36.715Z,998.67
2019-04-06T09:23:36.575Z,998.67
2019-04-06T09:24:36.585Z,998.65
2019-04-06T09:25:36.560Z,998.68
2019-04-06T09:26:36.780Z,998.67
2019-04-06T09:27:36.558Z,998.60
2019-04-06T09:28:36.521Z,998.64
2019-04-06T09:29:36.521Z,998.58
2019-04-06T09:30:36.508Z,998.58
2019-04-06T09:31:36.493Z,998.53
2019-04-06T09:32:36.684Z,998.56
2019-04-06T09:33:36.687Z,998.56
2019-04-06T09:34:36.454Z,998.58
2019-04-06T09:35:36.439Z,998.58
2019-04-06T09:36:36.436Z,998.57
2019-04-06T09:37:36.510Z,998.58
2019-04-06T09:38:36.488Z,998.58
2019-04-06T09:39:36.395Z,998.55
2019-04-06T09:40:36.389Z,998.55
2019-04-06T09:41:36.376Z,998.51
2019-04-06T09:42:36.404Z,998.51
2019-04-06T09:43:36.385Z,998.47
2019-04-06T09:44:36.341Z,998.44
2019-04-06T09:45:36.327Z,998.45
2019-04-06T09:46:36.501Z,998.40
2019-04-06T09:47:36.562Z,998.40
2019-04-06T09:48:36.318Z,998.39
2019-04-06T09:49:36.300Z,998.36
2019-04-06T09:50:36.292Z,998.38
2019-04-06T09:51:36.259Z,998.37
2019-04-06T09:52:36.250Z,998.36
2019-04-06T09:53:36.278Z,998.32
2019-04-06T09:54:36.228Z,998.31
2019-04-06T09:55:36.338Z,998.31
2019-04-06T09:56:36.208Z,998.36
2019-04-06T09:57:36.191Z,998.36
2019-04-06T09:58:36.217Z,998.39
2019-04-06T09:59:37.217Z,998.41
2019-04-06T10:00:36.453Z,998.40
2019-04-06T10:01:38.942Z,998.43
2019-04-06T10:02:36.135Z,998.37
2019-04-06T10:03:36.148Z,998.43
2019-04-06T10:04:36.113Z,998.34
2019-04-06T10:05:36.290Z,998.40
2019-04-06T10:06:36.090Z,998.35
2019-04-06T10:07:36.085Z,998.34
2019-04-06T10:08:36.263Z,998.31
2019-04-06T10:09:36.055Z,998.29
2019-04-06T10:10:36.283Z,998.34
2019-04-06T10:11:36.033Z,998.32
2019-04-06T10:12:36.029Z,998.28
2019-04-06T10:13:36.046Z,998.27
2019-04-06T10:14:36.342Z,998.27
2019-04-06T10:15:36.015Z,998.29
2019-04-06T10:16:36.008Z,998.26
2019-04-06T10:17:35.969Z,998.29
2019-04-06T10:18:35.977Z,998.25
2019-04-06T10:19:35.961Z,998.22
2019-04-06T10:20:36.147Z,998.17
2019-04-06T10:21:36.191Z,998.19
2019-04-06T10:22:35.909Z,998.17
2019-04-06T10:23:35.940Z,998.22
2019-04-06T10:24:35.887Z,998.20
2019-04-06T10:25:35.909Z,998.18
2019-04-06T10:26:35.862Z,998.18
2019-04-06T10:27:35.850Z,998.16
2019-04-06T10:28:35.864Z,998.13
2019-04-06T10:29:47.671Z,998.18
2019-04-06T10:30:36.816Z,998.19
2019-04-06T10:31:36.082Z,998.16
2019-04-06T10:32:35.936Z,998.12
2019-04-06T10:33:36.281Z,998.14
2019-04-06T10:34:35.773Z,998.09
2019-04-06T10:35:35.764Z,998.07
2019-04-06T10:36:35.788Z,998.05
2019-04-06T10:37:36.001Z,998.05
2019-04-06T10:38:35.731Z,998.04
2019-04-06T10:39:35.740Z,998.09
2019-04-06T10:40:35.707Z,998.09
2019-04-06T10:41:35.697Z,998.05
2019-04-06T10:42:35.682Z,998.03
2019-04-06T10:43:35.690Z,998.00
2019-04-06T10:44:35.685Z,998.00
2019-04-06T10:45:35.793Z,998.02
2019-04-06T10:46:35.636Z,998.01
2019-04-06T10:47:35.843Z,998.05
2019-04-06T10:48:35.904Z,998.03
2019-04-06T10:49:35.634Z,998.01
2019-04-06T10:50:35.596Z,997.97
2019-04-06T10:51:35.593Z,998.01
2019-04-06T10:52:35.572Z,997.99
2019-04-06T10:53:35.558Z,998.00
2019-04-06T10:54:35.572Z,997.99
2019-04-06T10:55:35.535Z,997.99
2019-04-06T10:56:35.525Z,998.01
2019-04-06T10:57:35.722Z,997.94
2019-04-06T10:58:35.500Z,997.93
2019-04-06T10:59:35.512Z,997.96
2019-04-06T11:00:35.480Z,997.91
2019-04-06T11:01:35.469Z,997.95
2019-04-06T11:02:35.456Z,997.98
2019-04-06T11:03:35.568Z,997.90
2019-04-06T11:04:35.458Z,997.96
2019-04-06T11:05:35.422Z,997.88
2019-04-06T11:06:35.424Z,997.90
2019-04-06T11:07:35.565Z,997.91
2019-04-06T11:08:35.387Z,997.85
2019-04-06T11:09:35.404Z,997.90
2019-04-06T11:10:35.662Z,997.82
2019-04-06T11:11:35.354Z,997.87
2019-04-06T11:12:35.513Z,997.90
2019-04-06T11:13:35.332Z,997.95
2019-04-06T11:14:35.418Z,997.90
2019-04-06T11:15:35.318Z,997.84
2019-04-06T11:16:35.319Z,997.88
2019-04-06T11:17:35.292Z,997.84
2019-04-06T11:18:35.273Z,997.92
2019-04-06T11:19:35.288Z,997.91
2019-04-06T11:20:35.252Z,997.87
2019-04-06T11:21:35.518Z,997.89
2019-04-06T11:22:35.518Z,997.82
2019-04-06T11:23:35.281Z,997.85
2019-04-06T11:24:35.290Z,997.78
2019-04-06T11:25:35.309Z,997.76
2019-04-06T11:26:35.206Z,997.84
2019-04-06T11:27:35.178Z,997.81
2019-04-06T11:28:35.167Z,997.84
2019-04-06T11:29:35.153Z,997.82
2019-04-06T11:30:35.161Z,997.82
2019-04-06T11:31:35.139Z,997.86
2019-04-06T11:32:35.119Z,997.86
2019-04-06T11:33:35.104Z,997.82
2019-04-06T11:34:35.119Z,997.77
2019-04-06T11:35:35.106Z,997.82
2019-04-06T11:36:35.350Z,997.77
2019-04-06T11:37:35.375Z,997.78
2019-04-06T11:38:35.047Z,997.75
2019-04-06T11:39:35.038Z,997.78
2019-04-06T11:40:35.051Z,997.80
2019-04-06T11:41:35.014Z,997.82
2019-04-06T11:42:35.019Z,997.84
2019-04-06T11:43:34.991Z,997.80
2019-04-06T11:44:34.983Z,997.80
2019-04-06T11:45:34.993Z,997.74
2019-04-06T11:46:34.958Z,997.80
2019-04-06T11:47:34.949Z,997.83
2019-04-06T11:48:34.938Z,997.75
2019-04-06T11:49:34.957Z,997.82
2019-04-06T11:50:34.940Z,997.76
2019-04-06T11:51:34.910Z,997.73
2019-04-06T11:52:35.058Z,997.77
2019-04-06T11:53:35.140Z,997.73
2019-04-06T11:54:34.891Z,997.74
2019-04-06T11:55:34.903Z,997.78
2019-04-06T11:56:35.104Z,997.70
2019-04-06T11:57:34.836Z,997.75
2019-04-06T11:58:34.849Z,997.72
2019-04-06T11:59:34.891Z,997.62
2019-04-06T12:00:34.826Z,997.67
2019-04-06T12:01:34.800Z,997.71
2019-04-06T12:02:34.826Z,997.77
2019-04-06T12:03:34.767Z,997.73
2019-04-06T12:04:35.027Z,997.74
2019-04-06T12:05:34.805Z,997.69
2019-04-06T12:06:34.788Z,997.67
2019-04-06T12:07:34.734Z,997.59
2019-04-06T12:08:34.861Z,997.66
2019-04-06T12:09:34.756Z,997.63
2019-04-06T12:10:34.711Z,997.64
2019-04-06T12:11:35.005Z,997.63
2019-04-06T12:12:34.826Z,997.54
2019-04-06T12:13:34.654Z,997.64
2019-04-06T12:14:34.650Z,997.60
2019-04-06T12:15:34.658Z,997.63
2019-04-06T12:16:34.621Z,997.55
2019-04-06T12:17:34.610Z,997.52
2019-04-06T12:18:34.598Z,997.54
2019-04-06T12:19:34.588Z,997.59
2019-04-06T12:20:34.611Z,997.56
2019-04-06T12:21:34.591Z,997.58
2019-04-06T12:22:34.561Z,997.54
2019-04-06T12:23:34.542Z,997.50
2019-04-06T12:24:34.745Z,997.52
2019-04-06T12:25:34.561Z,997.49
2019-04-06T12:26:34.550Z,997.50
2019-04-06T12:27:34.497Z,997.57
2019-04-06T12:28:34.490Z,997.45